Time;durP1;ratioP1;P1;durP2;ratioP2;P2;SDS_P1;SDS_P2;PMS_P1;PMS_P2;Temp;Humidity;BMP_temperature;BMP_pressure;BME280_temperature;BME280_humidity;BME280_pressure;Samples;Min_cycle;Max_cycle;Signal;HPM_P1;HPM_P2
2021/12/28 00:01:24;;;;;;;56.42;25.80;;;4.20;99.90;;;;;;5114061;27;20039;-84
2021/12/28 00:03:51;;;;;;;50.15;24.02;;;4.20;99.90;;;;;;5111774;27;20072;-85
2021/12/28 00:06:17;;;;;;;52.88;25.77;;;4.20;99.90;;;;;;5112387;27;20043;-84
2021/12/28 00:08:44;;;;;;;66.15;27.10;;;4.20;99.90;;;;;;5098190;27;20091;-84
2021/12/28 00:11:11;;;;;;;63.47;26.30;;;4.20;99.90;;;;;;5112807;27;20071;-85
2021/12/28 00:13:37;;;;;;;56.67;25.58;;;4.20;99.90;;;;;;5094458;27;20050;-84
2021/12/28 00:18:30;;;;;;;70.28;30.52;;;4.30;99.90;;;;;;5112716;27;20077;-85
2021/12/28 00:21:00;;;;;;;67.43;29.45;;;4.20;99.90;;;;;;5111597;27;20035;-85
2021/12/28 00:23:36;;;;;;;70.90;30.48;;;4.30;99.90;;;;;;5126755;27;20693;-84
2021/12/28 00:26:05;;;;;;;68.38;29.77;;;4.30;99.90;;;;;;5095410;27;20614;-84
2021/12/28 00:28:31;;;;;;;79.00;30.38;;;4.30;99.90;;;;;;5094744;27;20039;-84
2021/12/28 00:30:57;;;;;;;69.15;29.75;;;4.30;99.90;;;;;;5095294;27;20035;-85
2021/12/28 00:33:24;;;;;;;71.55;30.33;;;4.30;99.90;;;;;;5096282;27;20611;-85
2021/12/28 00:35:51;;;;;;;62.97;28.35;;;4.30;99.90;;;;;;5124429;27;20057;-84
2021/12/28 00:38:21;;;;;;;79.80;31.92;;;4.30;99.90;;;;;;5096113;27;20042;-84
2021/12/28 00:40:49;;;;;;;77.38;31.80;;;4.30;99.90;;;;;;5111199;27;20039;-84
2021/12/28 00:43:15;;;;;;;76.82;32.80;;;4.40;99.90;;;;;;5094143;27;20492;-84
2021/12/28 00:45:41;;;;;;;74.95;32.95;;;4.40;99.90;;;;;;5111917;27;20122;-85
2021/12/28 00:48:06;;;;;;;87.55;32.53;;;4.40;99.90;;;;;;5111812;27;20042;-85
2021/12/28 00:50:32;;;;;;;76.20;32.65;;;4.40;99.90;;;;;;5129670;27;20130;-85
2021/12/28 00:52:58;;;;;;;84.35;32.97;;;4.40;99.90;;;;;;5094386;27;20384;-85
2021/12/28 00:55:24;;;;;;;85.50;34.15;;;4.40;99.90;;;;;;5111845;27;20039;-85
2021/12/28 00:57:50;;;;;;;87.55;35.28;;;4.40;99.90;;;;;;5129197;27;20039;-85
2021/12/28 01:00:20;;;;;;;96.38;35.72;;;4.40;99.90;;;;;;5096108;27;20488;-85
2021/12/28 01:02:46;;;;;;;91.80;36.17;;;4.50;99.90;;;;;;5112233;27;20109;-85
2021/12/28 01:05:12;;;;;;;112.40;38.95;;;4.40;99.90;;;;;;5110937;27;20039;-85
2021/12/28 01:07:39;;;;;;;101.15;37.55;;;4.50;99.90;;;;;;5097550;27;20515;-85
2021/12/28 01:10:07;;;;;;;116.32;39.83;;;4.50;99.90;;;;;;5095234;27;21381;-85
2021/12/28 01:12:33;;;;;;;111.90;39.38;;;4.50;99.90;;;;;;5093300;27;20027;-85
2021/12/28 01:14:59;;;;;;;120.82;40.45;;;4.60;99.90;;;;;;5111471;27;20507;-85
2021/12/28 01:17:24;;;;;;;116.70;41.50;;;4.60;99.90;;;;;;5111506;27;20034;-85
2021/12/28 01:19:50;;;;;;;132.63;42.13;;;4.60;99.90;;;;;;5094467;27;20031;-85
2021/12/28 01:22:16;;;;;;;115.38;40.00;;;4.70;99.90;;;;;;5128802;27;20404;-85
2021/12/28 01:24:42;;;;;;;128.95;42.05;;;4.70;99.90;;;;;;5093939;27;20399;-85
2021/12/28 01:27:08;;;;;;;119.50;40.70;;;4.70;99.90;;;;;;5128918;27;20031;-85
2021/12/28 01:29:34;;;;;;;146.32;44.40;;;4.70;99.90;;;;;;5113327;27;20042;-84
2021/12/28 01:32:00;;;;;;;150.85;44.40;;;4.70;99.90;;;;;;5111895;27;20047;-85
2021/12/28 01:34:25;;;;;;;145.10;43.67;;;4.70;99.90;;;;;;5111584;27;21357;-84
2021/12/28 01:36:51;;;;;;;133.85;40.83;;;4.70;99.90;;;;;;5124633;27;20034;-85
2021/12/28 01:39:17;;;;;;;142.82;43.22;;;4.80;99.90;;;;;;5094306;27;20507;-85
2021/12/28 01:41:43;;;;;;;168.70;45.00;;;4.70;99.90;;;;;;5126667;27;20099;-85
2021/12/28 01:44:11;;;;;;;156.43;45.00;;;4.80;99.90;;;;;;5110621;27;20062;-85
2021/12/28 01:46:38;;;;;;;153.13;44.58;;;4.80;99.90;;;;;;5128164;27;20516;-85
2021/12/28 01:49:06;;;;;;;157.93;44.70;;;4.80;99.90;;;;;;5096157;27;20027;-85
2021/12/28 01:51:35;;;;;;;157.18;44.88;;;4.80;99.90;;;;;;5128261;27;20412;-85
2021/12/28 01:54:03;;;;;;;172.60;46.95;;;4.80;99.90;;;;;;5108448;27;20031;-85
2021/12/28 01:56:32;;;;;;;163.90;45.88;;;4.80;99.90;;;;;;5094776;27;20051;-85
2021/12/28 01:58:58;;;;;;;154.15;43.92;;;4.80;99.90;;;;;;5092758;27;20061;-85
2021/12/28 02:01:25;;;;;;;155.98;44.38;;;4.90;99.90;;;;;;5094372;27;20062;-85
2021/12/28 02:03:51;;;;;;;190.18;46.47;;;4.90;99.90;;;;;;5112702;27;20066;-85
2021/12/28 02:06:17;;;;;;;217.13;50.00;;;4.90;99.90;;;;;;5109548;27;20039;-85
2021/12/28 02:08:44;;;;;;;275.90;52.88;;;4.90;99.90;;;;;;5112408;27;20049;-86
2021/12/28 02:11:12;;;;;;;216.13;49.20;;;4.90;99.90;;;;;;5127952;27;20841;-85
2021/12/28 02:13:37;;;;;;;226.98;48.97;;;4.90;99.90;;;;;;5127593;27;20487;-85
2021/12/28 02:16:03;;;;;;;171.18;46.08;;;4.90;99.90;;;;;;5095331;27;20031;-85
2021/12/28 02:18:34;;;;;;;270.48;53.60;;;4.90;99.90;;;;;;5109705;27;20059;-85
2021/12/28 02:21:06;;;;;;;206.75;49.60;;;4.90;99.90;;;;;;5092935;27;20485;-85
2021/12/28 02:23:32;;;;;;;413.67;64.78;;;4.90;99.90;;;;;;5109868;27;20114;-85
2021/12/28 02:25:58;;;;;;;211.02;49.38;;;4.90;99.90;;;;;;5107526;27;20043;-85
2021/12/28 02:28:24;;;;;;;243.63;51.70;;;4.90;99.90;;;;;;5092557;27;20037;-85
2021/12/28 02:30:52;;;;;;;267.83;52.58;;;4.90;99.90;;;;;;5105589;27;20039;-85
2021/12/28 02:33:20;;;;;;;195.05;48.10;;;5.00;99.90;;;;;;5126596;27;20074;-85
2021/12/28 02:35:46;;;;;;;166.02;45.05;;;5.00;99.90;;;;;;5124213;27;20043;-85
2021/12/28 02:38:12;;;;;;;173.60;46.85;;;5.00;99.90;;;;;;5092639;27;20049;-85
2021/12/28 02:40:41;;;;;;;225.45;50.72;;;5.00;99.90;;;;;;5094060;27;20492;-85
2021/12/28 02:43:10;;;;;;;245.48;51.90;;;5.10;99.90;;;;;;5110881;27;20031;-85
2021/12/28 02:45:39;;;;;;;213.80;48.85;;;5.10;99.90;;;;;;5125692;27;20043;-85
2021/12/28 02:48:06;;;;;;;253.10;52.90;;;5.10;99.90;;;;;;5093675;28;20470;-85
2021/12/28 02:50:36;;;;;;;227.18;51.65;;;5.10;99.90;;;;;;5093173;28;20050;-85
2021/12/28 02:53:02;;;;;;;204.40;51.10;;;5.10;99.90;;;;;;5105707;28;20101;-85
2021/12/28 02:55:30;;;;;;;200.30;50.72;;;5.20;99.90;;;;;;5126967;27;20545;-84
2021/12/28 02:58:02;;;;;;;212.73;51.35;;;5.20;99.90;;;;;;5092460;28;20078;-85
2021/12/28 03:00:42;;;;;;;292.30;58.45;;;5.20;99.90;;;;;;5109813;28;20096;-85
2021/12/28 03:03:11;;;;;;;255.63;53.55;;;5.30;99.90;;;;;;5109597;28;20053;-85
2021/12/28 03:05:39;;;;;;;208.82;49.50;;;5.30;99.90;;;;;;5107253;27;20070;-85
2021/12/28 03:08:06;;;;;;;220.02;53.28;;;5.30;99.90;;;;;;5095320;27;20111;-85
2021/12/28 03:10:32;;;;;;;228.13;51.10;;;5.30;99.90;;;;;;5111330;27;20035;-85
2021/12/28 03:12:57;;;;;;;213.40;51.22;;;5.30;99.90;;;;;;5127882;27;20039;-85
2021/12/28 03:15:23;;;;;;;267.58;55.63;;;5.30;99.90;;;;;;5108847;28;20043;-85
2021/12/28 03:17:49;;;;;;;217.43;52.53;;;5.30;99.90;;;;;;5095621;28;20035;-85
2021/12/28 03:20:17;;;;;;;205.73;49.85;;;5.30;99.90;;;;;;5093172;28;20035;-85
2021/12/28 03:22:44;;;;;;;234.63;52.78;;;5.30;99.90;;;;;;5094658;28;20484;-86
2021/12/28 03:25:10;;;;;;;183.45;48.13;;;5.30;99.90;;;;;;5108372;28;20085;-85
2021/12/28 03:27:36;;;;;;;222.43;52.22;;;5.30;99.90;;;;;;5109495;28;20032;-86
2021/12/28 03:30:05;;;;;;;243.10;52.42;;;5.40;99.90;;;;;;5110577;28;20031;-85
2021/12/28 03:32:31;;;;;;;186.63;47.80;;;5.40;99.90;;;;;;5110152;28;20062;-85
2021/12/28 03:34:56;;;;;;;200.32;49.67;;;5.40;99.90;;;;;;5093441;27;20031;-85
2021/12/28 03:37:22;;;;;;;190.88;49.53;;;5.40;99.90;;;;;;5126579;27;20098;-85
2021/12/28 03:39:47;;;;;;;225.68;51.17;;;5.40;99.90;;;;;;5109590;28;20114;-85
2021/12/28 03:42:13;;;;;;;190.70;49.35;;;5.50;99.90;;;;;;5127355;27;20045;-85
2021/12/28 03:44:39;;;;;;;183.88;47.95;;;5.50;99.90;;;;;;5112303;27;20041;-85
2021/12/28 03:47:06;;;;;;;224.55;50.05;;;5.50;99.90;;;;;;5095438;27;20118;-85
2021/12/28 03:49:33;;;;;;;199.48;47.53;;;5.50;99.90;;;;;;5113008;27;20529;-85
2021/12/28 03:51:59;;;;;;;187.10;48.10;;;5.50;99.90;;;;;;5114068;27;20079;-85
2021/12/28 03:54:24;;;;;;;197.60;48.90;;;5.50;99.90;;;;;;5129181;27;20034;-85
2021/12/28 03:56:50;;;;;;;198.75;48.92;;;5.50;99.90;;;;;;5130415;27;20035;-85
2021/12/28 03:59:16;;;;;;;201.20;48.58;;;5.50;99.90;;;;;;5097143;27;20079;-85
2021/12/28 04:01:41;;;;;;;170.00;45.03;;;5.50;99.90;;;;;;5098789;27;20038;-85
2021/12/28 04:04:07;;;;;;;186.00;46.22;;;5.50;99.90;;;;;;5135308;27;20038;-85
2021/12/28 04:06:34;;;;;;;193.40;49.35;;;5.50;99.90;;;;;;5096015;27;20127;-85
2021/12/28 04:09:03;;;;;;;189.90;45.17;;;5.50;99.90;;;;;;5114704;27;20043;-86
2021/12/28 04:11:28;;;;;;;216.27;48.20;;;5.50;99.90;;;;;;5095910;27;20046;-85
2021/12/28 04:14:04;;;;;;;219.75;48.83;;;5.50;99.90;;;;;;5111066;27;20032;-85
2021/12/28 04:16:30;;;;;;;202.18;47.03;;;5.50;99.90;;;;;;5113033;27;20084;-86
2021/12/28 04:18:57;;;;;;;231.90;52.47;;;5.50;99.90;;;;;;5114198;27;20058;-85
2021/12/28 04:21:23;;;;;;;282.33;55.55;;;5.50;99.90;;;;;;5129929;27;20453;-86
2021/12/28 04:23:50;;;;;;;292.05;53.58;;;5.50;99.90;;;;;;5126999;27;20039;-86
2021/12/28 04:26:16;;;;;;;216.73;47.20;;;5.50;99.90;;;;;;5111237;27;20087;-85
2021/12/28 04:28:41;;;;;;;220.60;47.92;;;5.50;99.90;;;;;;5105117;27;20396;-85
2021/12/28 04:31:07;;;;;;;268.73;52.67;;;5.40;99.90;;;;;;5113067;27;20084;-85
2021/12/28 04:33:37;;;;;;;284.70;51.97;;;5.40;99.90;;;;;;5127175;27;20050;-85
2021/12/28 04:36:08;;;;;;;253.68;50.22;;;5.40;99.90;;;;;;5090630;27;20121;-85
2021/12/28 04:38:34;;;;;;;227.07;47.35;;;5.40;99.90;;;;;;5081039;28;20031;-85
2021/12/28 04:41:00;;;;;;;180.20;42.88;;;5.40;99.90;;;;;;5089689;28;20042;-85
2021/12/28 04:43:26;;;;;;;218.02;45.65;;;5.30;99.90;;;;;;5093079;27;20055;-85
2021/12/28 04:45:51;;;;;;;166.40;39.90;;;5.40;99.90;;;;;;5092359;28;20028;-85
2021/12/28 04:48:17;;;;;;;179.35;40.60;;;5.40;99.90;;;;;;5092823;28;20036;-85
2021/12/28 04:50:44;;;;;;;170.98;40.40;;;5.40;99.90;;;;;;5108736;27;20059;-86
2021/12/28 04:53:12;;;;;;;170.07;39.53;;;5.40;99.90;;;;;;5076725;28;20303;-85
2021/12/28 04:55:43;;;;;;;188.93;40.75;;;5.30;99.90;;;;;;5091526;27;20436;-85
2021/12/28 04:58:09;;;;;;;158.35;39.05;;;5.40;99.90;;;;;;5087968;28;20043;-85
2021/12/28 05:00:35;;;;;;;161.73;40.17;;;5.30;99.90;;;;;;5093228;28;20039;-86
2021/12/28 05:03:01;;;;;;;186.85;41.67;;;5.30;99.90;;;;;;5107837;28;20408;-85
2021/12/28 05:05:27;;;;;;;163.20;39.85;;;5.30;99.90;;;;;;5108538;27;20088;-85
2021/12/28 05:07:53;;;;;;;181.05;40.20;;;5.30;99.90;;;;;;5108533;28;20111;-85
2021/12/28 05:10:20;;;;;;;149.55;36.67;;;5.40;99.90;;;;;;5092683;28;20477;-85
2021/12/28 05:12:45;;;;;;;149.20;37.85;;;5.30;99.90;;;;;;5075390;27;20041;-85
2021/12/28 05:15:11;;;;;;;140.18;35.75;;;5.30;99.90;;;;;;5077805;28;20043;-86
2021/12/28 05:17:37;;;;;;;136.23;36.05;;;5.30;99.90;;;;;;5105570;28;20405;-85
2021/12/28 05:20:05;;;;;;;142.57;36.60;;;5.30;99.90;;;;;;5094969;27;20041;-84
2021/12/28 05:22:31;;;;;;;137.50;37.15;;;5.30;99.90;;;;;;5090688;28;20050;-85
2021/12/28 05:24:56;;;;;;;116.25;34.47;;;5.30;99.90;;;;;;5074665;28;20036;-85
2021/12/28 05:27:22;;;;;;;117.55;34.80;;;5.40;99.90;;;;;;5093904;28;20556;-85
2021/12/28 05:29:48;;;;;;;136.80;36.33;;;5.30;99.90;;;;;;5077054;27;20035;-85
2021/12/28 05:32:15;;;;;;;119.57;35.38;;;5.30;99.90;;;;;;5093576;28;20032;-85
2021/12/28 05:34:41;;;;;;;133.60;37.00;;;5.30;99.90;;;;;;5076328;28;20039;-86
2021/12/28 05:37:17;;;;;;;115.95;33.15;;;5.30;99.90;;;;;;5089126;28;20040;-86
2021/12/28 05:39:43;;;;;;;132.20;35.30;;;5.30;99.90;;;;;;5094070;28;20036;-85
2021/12/28 05:42:09;;;;;;;115.70;32.80;;;5.30;99.90;;;;;;5079657;27;20039;-85
2021/12/28 05:44:36;;;;;;;118.85;33.88;;;5.30;99.90;;;;;;5098458;28;20585;-85
2021/12/28 05:47:01;;;;;;;104.38;32.13;;;5.30;99.90;;;;;;5095368;28;20119;-85
2021/12/28 05:49:27;;;;;;;120.28;33.03;;;5.30;99.90;;;;;;5094333;28;20118;-85
2021/12/28 05:51:53;;;;;;;120.80;34.20;;;5.30;99.90;;;;;;5094727;28;20035;-85
2021/12/28 05:54:19;;;;;;;126.95;32.78;;;5.30;99.90;;;;;;5077676;28;20081;-85
2021/12/28 05:56:45;;;;;;;131.30;34.22;;;5.40;99.90;;;;;;5091207;28;20039;-85
2021/12/28 05:59:11;;;;;;;102.90;32.15;;;5.30;99.90;;;;;;5076435;28;20427;-85
2021/12/28 06:01:55;;;;;;;115.65;32.80;;;5.30;99.90;;;;;;5069174;28;20043;-85
2021/12/28 06:04:21;;;;;;;111.35;31.20;;;5.30;99.90;;;;;;5094281;28;20040;-85
2021/12/28 06:06:56;;;;;;;112.25;31.13;;;5.40;99.90;;;;;;5091055;28;20123;-86
2021/12/28 06:09:22;;;;;;;105.70;29.73;;;5.30;99.90;;;;;;5094666;28;20035;-85
2021/12/28 06:11:47;;;;;;;106.22;29.98;;;5.30;99.90;;;;;;5081568;27;20036;-85
2021/12/28 06:14:13;;;;;;;96.78;29.73;;;5.30;99.90;;;;;;5080203;28;20084;-85
2021/12/28 06:16:39;;;;;;;96.53;29.13;;;5.20;99.90;;;;;;5073619;28;20122;-85
2021/12/28 06:19:05;;;;;;;89.07;27.63;;;5.20;99.90;;;;;;5074122;28;20070;-85
2021/12/28 06:21:32;;;;;;;107.47;29.00;;;5.20;99.90;;;;;;5090172;27;20066;-85
2021/12/28 06:23:59;;;;;;;98.47;27.70;;;5.20;99.90;;;;;;5076314;28;20092;-85
2021/12/28 06:26:30;;;;;;;83.30;27.48;;;5.20;99.90;;;;;;5072756;28;20483;-85
2021/12/28 06:28:56;;;;;;;84.53;25.52;;;5.20;99.90;;;;;;5091117;28;20324;-85
2021/12/28 06:31:22;;;;;;;76.85;25.10;;;5.20;99.90;;;;;;5089620;28;20034;-85
2021/12/28 06:33:47;;;;;;;80.05;25.60;;;5.20;99.90;;;;;;5072289;28;20051;-85
2021/12/28 06:36:13;;;;;;;86.72;26.75;;;5.20;99.90;;;;;;5089780;28;20397;-85
2021/12/28 06:38:39;;;;;;;87.20;27.58;;;5.30;99.90;;;;;;5073820;28;20497;-86
2021/12/28 06:41:06;;;;;;;80.25;26.90;;;5.30;99.90;;;;;;5074193;28;20396;-85
2021/12/28 06:43:32;;;;;;;92.97;27.02;;;5.30;99.90;;;;;;5090340;28;20044;-85
2021/12/28 06:45:57;;;;;;;78.78;25.35;;;5.30;99.90;;;;;;5073199;28;20032;-85
2021/12/28 06:48:23;;;;;;;81.60;26.35;;;5.30;99.90;;;;;;5107568;28;20032;-85
2021/12/28 06:50:50;;;;;;;77.03;26.25;;;5.30;99.90;;;;;;5088778;28;20114;-85
2021/12/28 06:53:16;;;;;;;80.40;26.33;;;5.40;99.90;;;;;;5083329;28;20032;-86
2021/12/28 06:55:42;;;;;;;81.18;25.25;;;5.40;99.90;;;;;;5089860;28;20039;-86
2021/12/28 06:58:08;;;;;;;75.28;23.88;;;5.40;99.90;;;;;;5107408;28;20393;-86
2021/12/28 07:00:34;;;;;;;73.68;24.38;;;5.40;99.90;;;;;;5090169;28;20051;-85
2021/12/28 07:03:00;;;;;;;80.75;24.75;;;5.40;99.90;;;;;;5074884;28;20049;-86
2021/12/28 07:05:26;;;;;;;74.70;24.25;;;5.40;99.90;;;;;;5073717;28;20040;-85
2021/12/28 07:07:52;;;;;;;73.00;22.92;;;5.40;99.90;;;;;;5089853;28;20042;-85
2021/12/28 07:10:20;;;;;;;76.20;23.55;;;5.40;99.90;;;;;;5089806;28;20039;-85
2021/12/28 07:12:50;;;;;;;70.13;23.27;;;5.40;99.90;;;;;;5089196;28;20040;-85
2021/12/28 07:15:19;;;;;;;66.65;22.33;;;5.40;99.90;;;;;;5072441;28;20043;-85
2021/12/28 07:17:45;;;;;;;67.32;22.80;;;5.50;99.90;;;;;;5074246;28;20108;-85
2021/12/28 07:20:12;;;;;;;72.38;23.52;;;5.50;99.90;;;;;;5112282;27;20081;-85
2021/12/28 07:22:38;;;;;;;59.45;22.13;;;5.40;99.90;;;;;;5076405;28;20046;-86
2021/12/28 07:25:04;;;;;;;59.63;21.15;;;5.50;99.90;;;;;;5110056;28;20044;-86
2021/12/28 07:27:30;;;;;;;62.75;21.88;;;5.40;99.90;;;;;;5092075;28;20044;-86
2021/12/28 07:29:55;;;;;;;60.78;21.42;;;5.40;99.90;;;;;;5074764;28;20028;-85
2021/12/28 07:32:21;;;;;;;70.38;22.17;;;5.50;99.90;;;;;;5075516;28;20023;-85
2021/12/28 07:34:47;;;;;;;57.63;21.17;;;5.50;99.90;;;;;;5108179;28;20556;-85
2021/12/28 07:37:12;;;;;;;63.63;20.83;;;5.40;99.90;;;;;;5074650;28;20031;-86
2021/12/28 07:39:38;;;;;;;53.38;19.95;;;5.40;99.90;;;;;;5109466;27;20501;-85
2021/12/28 07:42:04;;;;;;;56.10;19.75;;;5.50;99.90;;;;;;5091860;28;20028;-86
2021/12/28 07:44:30;;;;;;;59.55;20.83;;;5.50;99.90;;;;;;5068342;28;20039;-84
2021/12/28 07:46:55;;;;;;;57.80;19.83;;;5.50;99.90;;;;;;5075601;28;20100;-85
2021/12/28 07:49:21;;;;;;;52.42;19.38;;;5.50;99.90;;;;;;5086310;28;20050;-84
2021/12/28 07:51:47;;;;;;;48.53;18.52;;;5.50;99.90;;;;;;5107917;28;20127;-85
2021/12/28 07:54:13;;;;;;;50.28;17.85;;;5.50;99.90;;;;;;5107386;27;20035;-85
2021/12/28 07:56:38;;;;;;;46.92;17.67;;;5.50;99.90;;;;;;5091509;28;20533;-85
2021/12/28 07:59:04;;;;;;;56.67;18.77;;;5.50;99.90;;;;;;5128038;27;20032;-84
2021/12/28 08:01:32;;;;;;;54.50;18.52;;;5.50;99.90;;;;;;5092811;28;20123;-84
2021/12/28 08:03:58;;;;;;;51.53;18.20;;;5.50;99.90;;;;;;5090450;27;20063;-83
2021/12/28 08:06:23;;;;;;;49.45;19.00;;;5.50;99.90;;;;;;5090407;27;20119;-85
2021/12/28 08:08:49;;;;;;;50.25;18.80;;;5.50;99.90;;;;;;5085491;27;20122;-84
2021/12/28 08:11:15;;;;;;;51.63;19.05;;;5.50;99.90;;;;;;5105266;27;20031;-84
2021/12/28 08:13:40;;;;;;;47.80;18.10;;;5.60;99.90;;;;;;5084549;28;20477;-84
2021/12/28 08:16:06;;;;;;;54.97;18.30;;;5.60;99.90;;;;;;5070905;28;20316;-83
2021/12/28 08:18:31;;;;;;;44.60;16.42;;;5.60;99.90;;;;;;5076493;27;20043;-83
2021/12/28 08:20:57;;;;;;;45.83;17.55;;;5.50;99.90;;;;;;5090768;28;20042;-83
2021/12/28 08:23:23;;;;;;;46.10;15.82;;;5.60;99.90;;;;;;5075052;28;20118;-84
2021/12/28 08:25:48;;;;;;;47.45;16.65;;;5.60;99.90;;;;;;5085952;28;20504;-84
2021/12/28 08:28:14;;;;;;;45.88;15.82;;;5.50;99.90;;;;;;5072036;28;20122;-84
2021/12/28 08:30:40;;;;;;;43.92;15.75;;;5.50;99.90;;;;;;5091862;28;20043;-85
2021/12/28 08:33:08;;;;;;;43.00;14.48;;;5.60;99.90;;;;;;5074639;28;20050;-84
2021/12/28 08:35:34;;;;;;;42.72;14.77;;;5.60;99.90;;;;;;5068235;28;20039;-83
2021/12/28 08:38:00;;;;;;;42.60;14.75;;;5.60;99.90;;;;;;5091091;28;20046;-84
2021/12/28 08:40:26;;;;;;;38.15;13.90;;;5.60;99.90;;;;;;5092909;28;20043;-86
2021/12/28 08:42:53;;;;;;;48.42;14.75;;;5.60;99.90;;;;;;5067482;28;20119;-84
2021/12/28 08:45:19;;;;;;;40.03;13.48;;;5.70;99.90;;;;;;5078765;28;20042;-82
2021/12/28 08:47:47;;;;;;;34.70;13.98;;;5.70;99.90;;;;;;5069641;28;20036;-83
2021/12/28 08:50:14;;;;;;;42.55;14.40;;;5.70;99.90;;;;;;5106359;27;20290;-84
2021/12/28 08:52:39;;;;;;;39.80;13.43;;;5.70;99.90;;;;;;5092532;28;20094;-84
2021/12/28 08:55:06;;;;;;;38.00;13.60;;;5.70;99.90;;;;;;5075769;28;20488;-83
2021/12/28 08:57:32;;;;;;;39.15;13.25;;;5.70;99.90;;;;;;5076093;28;20039;-84
2021/12/28 08:59:57;;;;;;;38.97;12.68;;;5.70;99.90;;;;;;5092348;28;20370;-84
2021/12/28 09:02:23;;;;;;;40.22;12.93;;;5.70;99.90;;;;;;5080596;27;20099;-84
2021/12/28 09:04:49;;;;;;;44.10;13.02;;;5.70;99.90;;;;;;5113178;27;20219;-84
2021/12/28 09:07:16;;;;;;;34.90;12.32;;;5.80;99.90;;;;;;5077642;28;20062;-83
2021/12/28 09:09:43;;;;;;;39.38;13.02;;;5.80;99.90;;;;;;5092476;28;20054;-83
2021/12/28 09:12:09;;;;;;;40.97;12.40;;;5.80;99.90;;;;;;5109208;28;20095;-84
2021/12/28 09:14:35;;;;;;;27.20;12.13;;;5.90;99.90;;;;;;5092281;28;20043;-83
2021/12/28 09:17:02;;;;;;;39.25;13.02;;;5.90;99.90;;;;;;5109915;28;20522;-84
2021/12/28 09:19:28;;;;;;;31.08;12.23;;;6.00;99.90;;;;;;5076091;27;20032;-83
2021/12/28 09:21:53;;;;;;;35.08;12.35;;;6.10;99.90;;;;;;5087980;27;20035;-84
2021/12/28 09:24:19;;;;;;;34.97;12.38;;;6.00;99.90;;;;;;5113324;27;20107;-83
2021/12/28 09:26:45;;;;;;;34.22;11.45;;;6.00;99.90;;;;;;5112515;27;20050;-84
2021/12/28 09:29:11;;;;;;;42.05;12.07;;;6.00;99.90;;;;;;5112217;27;20043;-83
2021/12/28 09:31:36;;;;;;;35.40;11.48;;;6.10;99.90;;;;;;5093500;27;20034;-84
2021/12/28 09:34:02;;;;;;;34.72;11.60;;;6.10;99.90;;;;;;5095590;27;20055;-84
2021/12/28 09:36:28;;;;;;;41.33;13.10;;;6.20;99.90;;;;;;5087112;28;20047;-84
2021/12/28 09:38:54;;;;;;;37.22;11.27;;;6.20;99.90;;;;;;5089479;27;20031;-84
2021/12/28 09:41:20;;;;;;;33.42;11.30;;;6.20;99.90;;;;;;5095773;27;20549;-84
2021/12/28 09:43:45;;;;;;;31.85;11.40;;;6.20;99.90;;;;;;5095129;27;20043;-84
2021/12/28 09:46:11;;;;;;;28.80;10.45;;;6.30;99.90;;;;;;5090767;27;20144;-83
2021/12/28 09:48:37;;;;;;;37.30;10.85;;;6.30;99.90;;;;;;5112871;27;20388;-84
2021/12/28 09:51:06;;;;;;;30.77;11.10;;;6.30;99.90;;;;;;5096393;28;20090;-83
2021/12/28 09:53:32;;;;;;;31.50;10.00;;;6.40;99.90;;;;;;5071915;28;20036;-83
2021/12/28 09:55:58;;;;;;;38.53;11.63;;;6.40;99.90;;;;;;5084766;27;20115;-84
2021/12/28 09:58:24;;;;;;;48.15;18.05;;;6.40;99.90;;;;;;5105308;27;22281;-83
2021/12/28 10:00:50;;;;;;;34.53;12.20;;;6.40;99.90;;;;;;5091137;28;20040;-84
2021/12/28 10:03:16;;;;;;;30.45;11.80;;;6.50;99.90;;;;;;5079972;27;20396;-84
2021/12/28 10:05:42;;;;;;;29.88;12.70;;;6.50;99.90;;;;;;5107061;27;20276;-84
2021/12/28 10:08:07;;;;;;;32.15;11.52;;;6.50;99.90;;;;;;5094971;27;20035;-84
2021/12/28 10:10:36;;;;;;;39.00;11.35;;;6.50;99.90;;;;;;5110402;27;20031;-84
2021/12/28 10:13:05;;;;;;;35.38;10.93;;;6.60;99.90;;;;;;5096942;28;20024;-84
2021/12/28 10:15:34;;;;;;;35.45;10.85;;;6.50;99.90;;;;;;5083053;28;20170;-83
2021/12/28 10:18:02;;;;;;;28.58;10.48;;;6.60;99.90;;;;;;5063178;28;20144;-85
2021/12/28 10:20:31;;;;;;;31.35;11.20;;;6.50;99.90;;;;;;5067404;28;20039;-84
2021/12/28 10:23:10;;;;;;;30.63;10.85;;;6.60;99.90;;;;;;5069588;28;20116;-84
2021/12/28 10:25:39;;;;;;;32.35;11.68;;;6.60;99.90;;;;;;5085090;28;20040;-85
2021/12/28 10:28:12;;;;;;;30.63;10.60;;;6.60;99.90;;;;;;5072283;28;20497;-84
2021/12/28 10:30:43;;;;;;;34.08;10.88;;;6.60;99.90;;;;;;5070723;28;20039;-85
2021/12/28 10:33:13;;;;;;;30.02;10.98;;;6.60;99.90;;;;;;5083634;28;20074;-85
2021/12/28 10:35:54;;;;;;;31.20;10.93;;;6.60;99.90;;;;;;5086743;28;20701;-85
2021/12/28 10:38:26;;;;;;;36.70;12.50;;;6.70;99.90;;;;;;5104105;28;20378;-85
2021/12/28 10:40:58;;;;;;;29.10;10.57;;;6.60;99.90;;;;;;5086189;28;20064;-85
2021/12/28 10:43:27;;;;;;;33.60;12.05;;;6.70;99.90;;;;;;5102911;28;20031;-84
2021/12/28 10:46:03;;;;;;;34.63;11.38;;;6.60;99.90;;;;;;5107900;28;20095;-86
2021/12/28 10:48:37;;;;;;;38.63;12.10;;;6.70;99.90;;;;;;5107252;28;20042;-88
2021/12/28 10:51:11;;;;;;;39.67;12.90;;;6.70;99.90;;;;;;5083173;28;20491;-86
2021/12/28 10:54:06;;;;;;;38.95;12.05;;;6.60;99.90;;;;;;5102811;28;20043;-85
2021/12/28 10:56:33;;;;;;;34.92;12.65;;;6.60;99.90;;;;;;5068813;28;20430;-86
2021/12/28 10:58:59;;;;;;;39.13;13.00;;;6.70;99.90;;;;;;5094375;28;20106;-85
2021/12/28 11:01:26;;;;;;;34.05;13.13;;;6.70;99.90;;;;;;5100352;28;20047;-84
2021/12/28 11:03:55;;;;;;;32.40;12.80;;;6.70;99.90;;;;;;5105817;28;20067;-83
2021/12/28 11:06:29;;;;;;;42.00;16.52;;;6.70;99.90;;;;;;5096545;28;20058;-84
2021/12/28 11:09:03;;;;;;;41.50;17.20;;;6.70;99.90;;;;;;5101960;28;20077;-83
2021/12/28 11:11:29;;;;;;;50.45;19.05;;;6.70;99.90;;;;;;5086615;28;20043;-84
2021/12/28 11:14:00;;;;;;;49.25;19.02;;;6.70;99.90;;;;;;5096379;28;20031;-85
2021/12/28 11:16:28;;;;;;;45.17;17.35;;;6.70;99.90;;;;;;5094972;28;20059;-85
2021/12/28 11:19:00;;;;;;;59.22;21.52;;;6.80;99.90;;;;;;5096215;28;20497;-85
2021/12/28 11:21:32;;;;;;;40.08;18.45;;;6.80;99.90;;;;;;5075077;28;20035;-85
2021/12/28 11:24:10;;;;;;;41.78;16.58;;;6.80;99.90;;;;;;5086324;28;20126;-84
2021/12/28 11:26:56;;;;;;;44.97;15.98;;;6.80;99.90;;;;;;5084100;28;20564;-83
2021/12/28 11:29:28;;;;;;;34.53;14.70;;;6.80;99.90;;;;;;5067685;28;20047;-84
2021/12/28 11:31:58;;;;;;;41.45;15.57;;;6.80;99.90;;;;;;5081862;28;20418;-85
2021/12/28 11:34:30;;;;;;;34.45;14.40;;;6.80;99.90;;;;;;5106899;28;20078;-84
2021/12/28 11:37:02;;;;;;;39.67;16.08;;;6.80;99.90;;;;;;5090383;28;20039;-84
2021/12/28 11:39:37;;;;;;;41.15;16.38;;;6.90;99.90;;;;;;5104268;28;20046;-84
2021/12/28 11:42:04;;;;;;;34.58;15.10;;;6.90;99.90;;;;;;5116448;28;20047;-86
2021/12/28 11:44:30;;;;;;;40.33;16.52;;;7.00;99.90;;;;;;5118008;27;20045;-86
2021/12/28 11:46:58;;;;;;;36.28;15.05;;;7.00;99.90;;;;;;5088494;28;20039;-85
2021/12/28 11:49:27;;;;;;;35.35;14.63;;;7.00;99.90;;;;;;5102275;28;20118;-84
2021/12/28 11:51:54;;;;;;;33.15;15.52;;;7.00;99.90;;;;;;5119112;27;20035;-84
2021/12/28 11:54:22;;;;;;;42.35;19.65;;;7.00;99.90;;;;;;5105179;27;21911;-85
2021/12/28 11:56:52;;;;;;;32.55;15.63;;;7.00;99.90;;;;;;5104953;28;20126;-85
2021/12/28 11:59:19;;;;;;;38.88;15.73;;;7.00;99.90;;;;;;5085720;28;20215;-88
2021/12/28 12:01:51;;;;;;;37.40;14.98;;;7.00;99.90;;;;;;5085836;28;20373;-86
2021/12/28 12:07:16;;;;;;;30.38;14.30;;;7.00;99.90;;;;;;5122576;27;20047;-84
2021/12/28 12:09:54;;;;;;;36.53;15.13;;;7.00;99.90;;;;;;5093737;27;20031;-87
2021/12/28 12:12:24;;;;;;;35.03;14.30;;;7.10;99.90;;;;;;5120755;27;20028;-91
2021/12/28 12:14:57;;;;;;;33.35;14.77;;;7.10;99.90;;;;;;5104850;27;20371;-85
2021/12/28 12:17:29;;;;;;;34.15;14.68;;;7.10;99.90;;;;;;5122472;27;20500;-87
2021/12/28 12:19:56;;;;;;;32.30;14.65;;;7.10;99.90;;;;;;5106806;27;20128;-86
2021/12/28 12:22:33;;;;;;;34.65;14.63;;;7.10;99.90;;;;;;5104583;27;20416;-86
2021/12/28 12:25:04;;;;;;;38.10;15.68;;;7.10;99.90;;;;;;5102862;27;20467;-86
2021/12/28 12:27:48;;;;;;;37.75;15.43;;;7.10;99.90;;;;;;5102933;27;20477;-86
2021/12/28 12:30:17;;;;;;;36.22;15.82;;;7.20;99.90;;;;;;5106562;27;20046;-87
2021/12/28 12:33:01;;;;;;;37.03;16.27;;;7.20;99.90;;;;;;5106606;27;20174;-86
2021/12/28 12:35:47;;;;;;;41.30;17.33;;;7.20;99.90;;;;;;5123007;27;20104;-86
2021/12/28 12:38:12;;;;;;;44.88;17.58;;;7.20;99.90;;;;;;5097372;27;20121;-86
2021/12/28 12:40:55;;;;;;;37.63;17.58;;;7.20;99.90;;;;;;5096906;27;20176;-86